| time (UTC) | temp F | wind direction | speed MPH | gust MPH | rain 1hr in | rain 24hr in | rain mn in | humidity % | barometer mb |
| 20260506043805 | 39 | 182 | 4.0 | 9.0 | 0.00 | 0.00 | 0.00 | 71 | 1012.1 |
| 20260506042021 | 38 | 196 | 3.0 | 9.0 | 0.00 | 0.00 | 0.00 | 74 | 1011.9 |
| 20260506040251 | 37 | 182 | 3.0 | 7.0 | 0.00 | 0.00 | 0.00 | 78 | 1011.7 |
| 20260506034522 | 35 | 112 | 2.0 | 6.0 | 0.00 | 0.00 | 0.00 | 83 | 1011.7 |
| 20260506032648 | 32 | 127 | 2.0 | 5.0 | 0.00 | 0.00 | 0.00 | 1011.5 | |
| 20260506030714 | 31 | 134 | 2.0 | 6.0 | 0.00 | 0.00 | 0.00 | 86 | 1011.3 |
| 20260506022956 | 30 | 179 | 3.0 | 9.0 | 0.00 | 0.00 | 0.00 | 85 | 1011.0 |
| 20260506015435 | 0 | 139 | 3.0 | 0.0 | 0.00 | 0.00 | 0.00 | 84 | 1010.7 |
| 20260506015431 | 30 | 139 | 3.0 | 8.0 | 0.00 | 0.00 | 0.00 | 84 | 1010.7 |
| 20260506013707 | 30 | 165 | 2.0 | 7.0 | 0.00 | 0.00 | 0.00 | 84 | 1010.5 |
| 20260506011948 | 30 | 140 | 2.0 | 6.0 | 0.00 | 0.00 | 0.00 | 84 | 1010.4 |
| 20260506004506 | 30 | 153 | 3.0 | 6.0 | 0.00 | 0.00 | 0.00 | 82 | 1010.1 |
| 20260506002746 | 31 | 101 | 3.0 | 6.0 | 0.00 | 0.00 | 0.00 | 82 | 1010.0 |
| 20260506001004 | 31 | 139 | 6.0 | 0.0 | 0.00 | 0.00 | 0.00 | 80 | 1009.9 |
| 20260506001001 | 31 | 139 | 3.0 | 6.0 | 0.00 | 0.00 | 0.00 | 80 | 1009.9 |
| 20260505235106 | 32 | 195 | 2.0 | 10.0 | 0.00 | 0.00 | 0.00 | 78 | 1009.7 |
| 20260505231629 | 33 | 170 | 2.0 | 6.0 | 0.00 | 0.00 | 0.00 | 75 | 1009.7 |
| 20260505231626 | 33 | 170 | 2.0 | 6.0 | 0.00 | 0.00 | 0.00 | 75 | 1009.7 |
| 20260505225751 | 34 | 106 | 2.0 | 6.0 | 0.00 | 0.00 | 0.00 | 72 | 1009.5 |
| 20260505224011 | 35 | 171 | 3.0 | 7.0 | 0.00 | 0.00 | 0.00 | 71 | 1009.4 |
| 20260505222236 | 37 | 145 | 3.0 | 7.0 | 0.00 | 0.00 | 0.00 | 68 | 1009.3 |
| 20260505220541 | 37 | 168 | 3.0 | 7.0 | 0.00 | 0.00 | 0.00 | 67 | 1009.3 |
| 20260505212736 | 38 | 169 | 4.0 | 7.0 | 0.00 | 0.00 | 0.00 | 64 | 1009.2 |
| 20260505210831 | 38 | 179 | 4.0 | 8.0 | 0.00 | 0.00 | 0.00 | 63 | 1009.1 |
| 20260505205131 | 38 | 174 | 4.0 | 8.0 | 0.00 | 0.00 | 0.00 | 62 | 1008.9 |
| 20260505203321 | 39 | 168 | 3.0 | 7.0 | 0.00 | 0.00 | 0.00 | 59 | 1008.7 |
| 20260505201626 | 39 | 166 | 4.0 | 7.0 | 0.00 | 0.00 | 0.00 | 57 | 1008.6 |
| 20260505195802 | 40 | 149 | 3.0 | 8.0 | 0.00 | 0.00 | 0.00 | 51 | |
| 20260505194046 | 41 | 178 | 4.0 | 8.0 | 0.00 | 0.00 | 0.00 | 54 | 1008.3 |
| 20260505192326 | 41 | 193 | 4.0 | 8.0 | 0.00 | 0.00 | 0.00 | 55 | 1008.3 |
| 20260505190456 | 41 | 183 | 4.0 | 8.0 | 0.00 | 0.00 | 0.00 | 54 | 1008.1 |
| 20260505184704 | 42 | 181 | 4.0 | 8.0 | 0.00 | 0.00 | 0.00 | 52 | 1008.0 |
| 20260505182831 | 42 | 174 | 5.0 | 11.0 | 0.00 | 0.00 | 0.00 | 50 | 1007.8 |
| 20260505180926 | 43 | 190 | 4.0 | 9.0 | 0.00 | 0.00 | 0.00 | 53 | 1007.5 |
| 20260505175040 | 44 | 200 | 4.0 | 8.0 | 0.00 | 0.00 | 0.00 | 55 | 1007.3 |
| 20260505173145 | 44 | 212 | 6.0 | 12.0 | 0.00 | 0.00 | 0.00 | 55 | 1007.1 |
| 20260505171155 | 45 | 209 | 5.0 | 12.0 | 0.00 | 0.00 | 0.00 | 54 | 1007.0 |
| 20260505165330 | 46 | 216 | 4.0 | 10.0 | 0.00 | 0.00 | 0.00 | 51 | 1006.9 |
| 20260505163536 | 46 | 222 | 5.0 | 15.0 | 0.00 | 0.00 | 0.00 | 46 | 1006.9 |
| 20260505161927 | 48 | 230 | 10.0 | 10.0 | 0.00 | 0.00 | 0.00 | 40 | 1006.8 |
| 20260505161925 | 48 | 230 | 4.0 | 10.0 | 0.00 | 0.00 | 0.00 | 40 | 1006.8 |
| 20260505152630 | 49 | 220 | 6.0 | 17.0 | 0.00 | 0.00 | 0.00 | 40 | 1006.5 |
| 20260505150740 | 50 | 242 | 5.0 | 12.0 | 0.00 | 0.00 | 0.00 | 37 | 1006.4 |
| 20260505124920 | 51 | 233 | 6.0 | 16.0 | 0.00 | 0.00 | 0.00 | 36 | 1005.5 |
| 20260505123130 | 52 | 217 | 6.0 | 22.0 | 0.00 | 0.00 | 0.00 | 38 | 1005.3 |
| 20260505121253 | 0 | 225 | 6.0 | 0.0 | 0.00 | 0.00 | 0.00 | 37 | 1005.2 |
| 20260505121250 | 52 | 225 | 6.0 | 17.0 | 0.00 | 0.00 | 0.00 | 37 | 1005.2 |
| 20260505115545 | 52 | 234 | 7.0 | 18.0 | 0.00 | 0.00 | 0.00 | 38 | 1005.0 |
| 20260505113940 | 52 | 229 | 6.0 | 19.0 | 0.00 | 0.00 | 0.00 | 39 | 1004.8 |
| 20260505112155 | 50 | 230 | 5.0 | 11.0 | 0.00 | 0.00 | 0.00 | 41 | 1004.8 |
| 20260505110450 | 52 | 231 | 7.0 | 14.0 | 0.00 | 0.00 | 0.00 | 39 | 1004.5 |
| 20260505100935 | 51 | 260 | 4.0 | 12.0 | 0.00 | 0.00 | 0.00 | 46 | 1004.0 |
| 20260505095035 | 53 | 229 | 5.0 | 14.0 | 0.00 | 0.00 | 0.00 | 43 | 1003.6 |
| 20260505093139 | 53 | 241 | 7.0 | 16.0 | 0.00 | 0.00 | 0.00 | 43 | 1003.3 |
| 20260505091145 | 52 | 236 | 5.0 | 18.0 | 0.00 | 0.00 | 0.00 | 44 | 1003.1 |
| 20260505085248 | 52 | 218 | 7.0 | 16.0 | 0.00 | 0.00 | 0.00 | 47 | 1002.7 |
| 20260505083325 | 51 | 223 | 7.0 | 16.0 | 0.00 | 0.00 | 0.00 | 62 | 1002.5 |
| 20260505081550 | 50 | 218 | 6.0 | 13.0 | 0.00 | 0.00 | 0.00 | 63 | 1002.3 |
| 20260505075635 | 51 | 228 | 5.0 | 14.0 | 0.00 | 0.00 | 0.00 | 63 | 1002.1 |
| 20260505073650 | 51 | 215 | 6.0 | 15.0 | 0.00 | 0.00 | 0.00 | 59 | 1002.1 |
| 20260505071815 | 51 | 218 | 6.0 | 13.0 | 0.00 | 0.00 | 0.00 | 58 | 1001.8 |
| 20260505070110 | 50 | 219 | 6.0 | 15.0 | 0.00 | 0.00 | 0.00 | 60 | 1001.7 |
| 20260505064458 | 51 | 220 | 5.0 | 13.0 | 0.00 | 0.00 | 0.00 | 59 | 1001.6 |
| 20260505062633 | 49 | 230 | 6.0 | 14.0 | 0.00 | 0.00 | 0.00 | 60 | 1001.6 |
| 20260505062630 | 49 | 230 | 6.0 | 14.0 | 0.00 | 0.00 | 0.00 | 60 | 1001.6 |
| 20260505060637 | 47 | 217 | 5.0 | 11.0 | 0.00 | 0.00 | 0.00 | 68 | 1001.3 |
| 20260505054757 | 47 | 217 | 6.0 | 10.0 | 0.00 | 0.00 | 0.00 | 69 | 1001.3 |
| 20260505054755 | 47 | 217 | 6.0 | 10.0 | 0.00 | 0.00 | 0.00 | 69 | 1001.3 |